sensor_id;sensor_type;location;lat;lon;timestamp;pressure;altitude;pressure_sealevel;temperature;humidity
9035;BME280;4552;43.422;24.592;2023-03-26T00:01:26;99358.72;;;11.70;100.00
9035;BME280;4552;43.422;24.592;2023-03-26T00:03:54;99361.25;;;11.73;100.00
9035;BME280;4552;43.422;24.592;2023-03-26T00:06:24;99352.66;;;11.68;100.00
9035;BME280;4552;43.422;24.592;2023-03-26T00:08:52;99359.59;;;11.70;100.00
9035;BME280;4552;43.422;24.592;2023-03-26T00:11:21;99376.91;;;11.76;100.00
9035;BME280;4552;43.422;24.592;2023-03-26T00:13:48;99364.75;;;11.73;100.00
9035;BME280;4552;43.422;24.592;2023-03-26T00:16:19;99359.47;;;11.75;100.00
9035;BME280;4552;43.422;24.592;2023-03-26T00:55:47;99333.00;;;11.52;100.00
9035;BME280;4552;43.422;24.592;2023-03-26T00:58:15;99328.84;;;11.43;100.00
9035;BME280;4552;43.422;24.592;2023-03-26T01:00:50;99317.59;;;11.40;100.00
9035;BME280;4552;43.422;24.592;2023-03-26T01:23:35;99311.63;;;11.35;100.00
9035;BME280;4552;43.422;24.592;2023-03-26T01:26:09;99300.47;;;11.27;100.00
9035;BME280;4552;43.422;24.592;2023-03-26T01:28:40;99301.44;;;11.24;100.00
9035;BME280;4552;43.422;24.592;2023-03-26T01:31:12;99315.00;;;11.40;100.00
9035;BME280;4552;43.422;24.592;2023-03-26T01:53:54;99322.94;;;11.37;100.00
9035;BME280;4552;43.422;24.592;2023-03-26T01:56:27;99327.13;;;11.42;100.00
9035;BME280;4552;43.422;24.592;2023-03-26T01:59:10;99322.97;;;11.35;100.00
9035;BME280;4552;43.422;24.592;2023-03-26T02:01:44;99321.19;;;11.36;100.00
9035;BME280;4552;43.422;24.592;2023-03-26T02:04:23;99324.59;;;11.39;100.00
9035;BME280;4552;43.422;24.592;2023-03-26T02:06:56;99336.69;;;11.43;100.00
9035;BME280;4552;43.422;24.592;2023-03-26T02:09:30;99344.78;;;11.36;100.00
9035;BME280;4552;43.422;24.592;2023-03-26T02:11:59;99347.50;;;11.31;100.00
9035;BME280;4552;43.422;24.592;2023-03-26T02:14:28;99341.41;;;11.32;100.00
9035;BME280;4552;43.422;24.592;2023-03-26T02:16:55;99333.00;;;11.20;100.00
9035;BME280;4552;43.422;24.592;2023-03-26T02:59:45;99364.50;;;11.17;100.00
9035;BME280;4552;43.422;24.592;2023-03-26T03:02:14;99353.31;;;11.10;100.00
9035;BME280;4552;43.422;24.592;2023-03-26T03:04:42;99373.34;;;11.11;100.00
9035;BME280;4552;43.422;24.592;2023-03-26T03:07:09;99368.88;;;11.16;100.00
9035;BME280;4552;43.422;24.592;2023-03-26T03:09:39;99365.25;;;11.20;100.00
9035;BME280;4552;43.422;24.592;2023-03-26T03:12:06;99365.13;;;11.26;100.00
9035;BME280;4552;43.422;24.592;2023-03-26T03:14:32;99368.47;;;11.31;100.00
9035;BME280;4552;43.422;24.592;2023-03-26T03:17:01;99374.66;;;11.29;100.00
9035;BME280;4552;43.422;24.592;2023-03-26T03:29:34;99404.31;;;11.31;100.00
9035;BME280;4552;43.422;24.592;2023-03-26T03:32:02;99405.16;;;11.31;100.00
9035;BME280;4552;43.422;24.592;2023-03-26T03:37:51;99412.31;;;11.25;100.00
9035;BME280;4552;43.422;24.592;2023-03-26T03:40:18;99402.72;;;11.24;100.00
9035;BME280;4552;43.422;24.592;2023-03-26T03:42:45;99397.41;;;11.27;100.00
9035;BME280;4552;43.422;24.592;2023-03-26T03:45:12;99407.63;;;11.37;100.00
9035;BME280;4552;43.422;24.592;2023-03-26T03:47:41;99412.97;;;11.33;100.00
9035;BME280;4552;43.422;24.592;2023-03-26T03:50:08;99419.03;;;11.35;100.00
9035;BME280;4552;43.422;24.592;2023-03-26T03:52:36;99412.22;;;11.29;100.00
9035;BME280;4552;43.422;24.592;2023-03-26T03:55:03;99406.97;;;11.29;100.00
9035;BME280;4552;43.422;24.592;2023-03-26T03:57:30;99399.34;;;11.19;100.00
9035;BME280;4552;43.422;24.592;2023-03-26T03:59:57;99397.72;;;11.15;100.00
9035;BME280;4552;43.422;24.592;2023-03-26T04:02:24;99410.59;;;11.24;100.00
9035;BME280;4552;43.422;24.592;2023-03-26T04:04:56;99400.19;;;11.21;100.00
9035;BME280;4552;43.422;24.592;2023-03-26T04:07:23;99420.31;;;11.19;100.00
9035;BME280;4552;43.422;24.592;2023-03-26T04:09:50;99414.53;;;11.06;100.00
9035;BME280;4552;43.422;24.592;2023-03-26T04:12:18;99418.91;;;11.06;100.00
9035;BME280;4552;43.422;24.592;2023-03-26T04:14:45;99414.75;;;10.97;100.00
9035;BME280;4552;43.422;24.592;2023-03-26T04:17:12;99415.69;;;10.93;100.00
9035;BME280;4552;43.422;24.592;2023-03-26T04:43:15;99457.47;;;10.60;100.00
9035;BME280;4552;43.422;24.592;2023-03-26T04:45:43;99467.94;;;10.60;100.00
9035;BME280;4552;43.422;24.592;2023-03-26T04:51:51;99458.91;;;10.74;100.00
9035;BME280;4552;43.422;24.592;2023-03-26T04:54:21;99475.53;;;10.72;100.00
9035;BME280;4552;43.422;24.592;2023-03-26T04:56:52;99480.84;;;10.69;100.00
9035;BME280;4552;43.422;24.592;2023-03-26T04:59:25;99475.53;;;10.72;100.00
9035;BME280;4552;43.422;24.592;2023-03-26T05:01:54;99484.34;;;10.68;100.00
9035;BME280;4552;43.422;24.592;2023-03-26T05:41:19;99515.28;;;11.27;93.74
9035;BME280;4552;43.422;24.592;2023-03-26T05:43:46;99512.97;;;11.15;95.25
9035;BME280;4552;43.422;24.592;2023-03-26T05:46:13;99518.28;;;11.12;94.54
9035;BME280;4552;43.422;24.592;2023-03-26T05:48:40;99495.81;;;11.02;95.07
9035;BME280;4552;43.422;24.592;2023-03-26T05:51:07;99517.72;;;11.34;94.43
9035;BME280;4552;43.422;24.592;2023-03-26T05:53:34;99498.75;;;11.26;93.50
9035;BME280;4552;43.422;24.592;2023-03-26T05:56:01;99521.78;;;11.49;93.05
9035;BME280;4552;43.422;24.592;2023-03-26T05:58:32;99506.22;;;11.41;93.54
9035;BME280;4552;43.422;24.592;2023-03-26T06:01:00;99511.84;;;11.61;92.68
9035;BME280;4552;43.422;24.592;2023-03-26T06:03:30;99514.47;;;11.61;91.29
9035;BME280;4552;43.422;24.592;2023-03-26T06:05:57;99527.28;;;11.75;90.76
9035;BME280;4552;43.422;24.592;2023-03-26T06:08:25;99527.84;;;11.86;90.10
9035;BME280;4552;43.422;24.592;2023-03-26T06:10:57;99534.06;;;11.82;89.06
9035;BME280;4552;43.422;24.592;2023-03-26T06:13:24;99537.63;;;11.79;88.86
9035;BME280;4552;43.422;24.592;2023-03-26T06:15:53;99529.72;;;11.81;88.56
9035;BME280;4552;43.422;24.592;2023-03-26T06:18:20;99523.41;;;11.88;88.95
9035;BME280;4552;43.422;24.592;2023-03-26T06:20:47;99536.38;;;11.94;89.06
9035;BME280;4552;43.422;24.592;2023-03-26T06:23:14;99528.25;;;12.03;87.93
9035;BME280;4552;43.422;24.592;2023-03-26T06:25:41;99539.56;;;12.06;88.16
9035;BME280;4552;43.422;24.592;2023-03-26T06:28:08;99540.34;;;12.10;88.01
9035;BME280;4552;43.422;24.592;2023-03-26T06:30:35;99535.47;;;12.29;86.62
9035;BME280;4552;43.422;24.592;2023-03-26T06:33:04;99537.22;;;12.28;87.02
9035;BME280;4552;43.422;24.592;2023-03-26T06:35:31;99530.97;;;12.32;86.45
9035;BME280;4552;43.422;24.592;2023-03-26T06:37:58;99542.25;;;12.36;86.04
9035;BME280;4552;43.422;24.592;2023-03-26T06:47:08;99536.19;;;12.64;82.42
9035;BME280;4552;43.422;24.592;2023-03-26T06:49:37;99542.31;;;12.65;82.34
9035;BME280;4552;43.422;24.592;2023-03-26T06:52:04;99539.84;;;12.89;82.23
9035;BME280;4552;43.422;24.592;2023-03-26T06:54:31;99528.72;;;13.10;81.57
9035;BME280;4552;43.422;24.592;2023-03-26T06:56:57;99541.84;;;13.10;80.57
9035;BME280;4552;43.422;24.592;2023-03-26T06:59:25;99535.78;;;13.08;81.38
9035;BME280;4552;43.422;24.592;2023-03-26T07:01:52;99537.97;;;13.23;80.95
9035;BME280;4552;43.422;24.592;2023-03-26T08:29:32;99545.56;;;15.30;56.54
9035;BME280;4552;43.422;24.592;2023-03-26T08:32:04;99554.00;;;15.40;55.91
9035;BME280;4552;43.422;24.592;2023-03-26T08:34:38;99550.81;;;15.53;57.20
9035;BME280;4552;43.422;24.592;2023-03-26T08:37:05;99536.44;;;15.60;55.80
9035;BME280;4552;43.422;24.592;2023-03-26T08:39:35;99546.66;;;15.48;55.21
9035;BME280;4552;43.422;24.592;2023-03-26T08:45:29;99563.22;;;15.73;52.88
9035;BME280;4552;43.422;24.592;2023-03-26T09:52:01;99476.75;;;16.20;50.98
9035;BME280;4552;43.422;24.592;2023-03-26T09:57:51;99480.22;;;16.60;48.48
9035;BME280;4552;43.422;24.592;2023-03-26T10:00:28;99488.91;;;16.82;47.65
9035;BME280;4552;43.422;24.592;2023-03-26T10:03:15;99466.94;;;16.80;45.62
9035;BME280;4552;43.422;24.592;2023-03-26T10:05:51;99477.72;;;16.76;44.14
9035;BME280;4552;43.422;24.592;2023-03-26T10:08:45;99433.75;;;16.75;45.00
9035;BME280;4552;43.422;24.592;2023-03-26T10:11:20;99469.97;;;16.91;43.67
9035;BME280;4552;43.422;24.592;2023-03-26T10:14:02;99469.53;;;17.00;43.22
9035;BME280;4552;43.422;24.592;2023-03-26T10:16:42;99460.50;;;17.04;43.11
9035;BME280;4552;43.422;24.592;2023-03-26T10:19:28;99466.22;;;16.95;42.77
9035;BME280;4552;43.422;24.592;2023-03-26T10:22:02;99457.91;;;17.21;42.86
9035;BME280;4552;43.422;24.592;2023-03-26T10:24:52;99437.06;;;17.15;38.44
9035;BME280;4552;43.422;24.592;2023-03-26T10:27:41;99463.94;;;17.06;38.65
9035;BME280;4552;43.422;24.592;2023-03-26T10:30:30;99461.88;;;17.30;39.37
9035;BME280;4552;43.422;24.592;2023-03-26T11:47:09;99347.19;;;17.50;35.22
9035;BME280;4552;43.422;24.592;2023-03-26T11:49:39;99359.31;;;17.71;35.17
9035;BME280;4552;43.422;24.592;2023-03-26T11:52:09;99306.78;;;17.63;32.21
9035;BME280;4552;43.422;24.592;2023-03-26T11:54:36;99325.22;;;17.65;32.32
9035;BME280;4552;43.422;24.592;2023-03-26T11:57:05;99363.19;;;17.64;35.66
9035;BME280;4552;43.422;24.592;2023-03-26T11:59:36;99352.59;;;17.81;37.10
9035;BME280;4552;43.422;24.592;2023-03-26T12:02:23;99380.25;;;17.58;35.30
9035;BME280;4552;43.422;24.592;2023-03-26T12:04:52;99315.78;;;17.42;33.16
9035;BME280;4552;43.422;24.592;2023-03-26T12:07:30;99322.66;;;17.46;33.92
9035;BME280;4552;43.422;24.592;2023-03-26T12:09:59;99275.97;;;17.45;31.24
9035;BME280;4552;43.422;24.592;2023-03-26T12:12:28;99303.91;;;17.51;32.65
9035;BME280;4552;43.422;24.592;2023-03-26T12:14:56;99318.91;;;17.50;33.89
9035;BME280;4552;43.422;24.592;2023-03-26T12:17:30;99316.56;;;17.44;32.28
9035;BME280;4552;43.422;24.592;2023-03-26T12:19:58;99343.06;;;17.25;32.09
9035;BME280;4552;43.422;24.592;2023-03-26T12:22:32;99344.56;;;17.31;34.03
9035;BME280;4552;43.422;24.592;2023-03-26T12:25:03;99303.72;;;17.19;31.35
9035;BME280;4552;43.422;24.592;2023-03-26T12:27:42;99265.13;;;17.33;29.52
9035;BME280;4552;43.422;24.592;2023-03-26T12:30:11;99276.63;;;17.31;29.69
9035;BME280;4552;43.422;24.592;2023-03-26T12:32:47;99284.00;;;17.44;30.58
9035;BME280;4552;43.422;24.592;2023-03-26T12:35:16;99324.28;;;17.49;33.06
9035;BME280;4552;43.422;24.592;2023-03-26T12:37:45;99339.91;;;17.70;33.89
9035;BME280;4552;43.422;24.592;2023-03-26T12:40:30;99333.06;;;17.32;33.57
9035;BME280;4552;43.422;24.592;2023-03-26T12:43:01;99342.22;;;17.44;34.63
9035;BME280;4552;43.422;24.592;2023-03-26T12:45:30;99323.81;;;17.58;34.69
9035;BME280;4552;43.422;24.592;2023-03-26T12:47:59;99323.72;;;17.59;33.77
9035;BME280;4552;43.422;24.592;2023-03-26T12:50:30;99289.88;;;17.49;32.04
9035;BME280;4552;43.422;24.592;2023-03-26T12:53:10;99292.41;;;17.67;31.95
9035;BME280;4552;43.422;24.592;2023-03-26T12:55:42;99273.56;;;17.73;28.97
9035;BME280;4552;43.422;24.592;2023-03-26T12:58:34;99261.72;;;17.96;30.17
9035;BME280;4552;43.422;24.592;2023-03-26T13:01:09;99332.09;;;17.84;34.09
9035;BME280;4552;43.422;24.592;2023-03-26T13:17:18;99256.19;;;17.52;30.20
9035;BME280;4552;43.422;24.592;2023-03-26T13:19:55;99237.72;;;17.51;29.24
9035;BME280;4552;43.422;24.592;2023-03-26T13:22:34;99273.97;;;17.66;32.15
9035;BME280;4552;43.422;24.592;2023-03-26T13:25:15;99311.97;;;17.65;33.85
9035;BME280;4552;43.422;24.592;2023-03-26T13:27:54;99302.91;;;17.86;34.59
9035;BME280;4552;43.422;24.592;2023-03-26T13:30:32;99299.66;;;17.64;34.68
9035;BME280;4552;43.422;24.592;2023-03-26T13:33:23;99310.25;;;17.64;34.20
9035;BME280;4552;43.422;24.592;2023-03-26T13:35:56;99286.28;;;17.67;33.82
9035;BME280;4552;43.422;24.592;2023-03-26T13:38:32;99297.31;;;17.75;33.30
9035;BME280;4552;43.422;24.592;2023-03-26T13:41:08;99271.41;;;17.64;33.82
9035;BME280;4552;43.422;24.592;2023-03-26T13:43:51;99300.16;;;17.55;34.54
9035;BME280;4552;43.422;24.592;2023-03-26T13:46:26;99291.59;;;17.50;34.54
9035;BME280;4552;43.422;24.592;2023-03-26T13:49:00;99301.84;;;17.73;35.33
9035;BME280;4552;43.422;24.592;2023-03-26T13:51:34;99280.53;;;17.91;33.85
9035;BME280;4552;43.422;24.592;2023-03-26T13:54:12;99288.09;;;17.99;33.71
9035;BME280;4552;43.422;24.592;2023-03-26T13:56:45;99290.94;;;17.94;33.99
9035;BME280;4552;43.422;24.592;2023-03-26T13:59:16;99276.25;;;17.89;33.22
9035;BME280;4552;43.422;24.592;2023-03-26T14:01:49;99270.78;;;17.92;32.58
9035;BME280;4552;43.422;24.592;2023-03-26T14:04:23;99259.41;;;17.90;32.33
9035;BME280;4552;43.422;24.592;2023-03-26T14:06:58;99269.91;;;17.76;32.68
9035;BME280;4552;43.422;24.592;2023-03-26T14:09:30;99269.34;;;17.86;33.10
9035;BME280;4552;43.422;24.592;2023-03-26T14:12:19;99277.03;;;17.91;33.68
9035;BME280;4552;43.422;24.592;2023-03-26T14:14:53;99285.44;;;17.99;34.06
9035;BME280;4552;43.422;24.592;2023-03-26T14:17:25;99276.25;;;17.89;33.93
9035;BME280;4552;43.422;24.592;2023-03-26T15:44:38;99253.44;;;17.54;34.27
9035;BME280;4552;43.422;24.592;2023-03-26T15:47:41;99261.22;;;17.57;34.33
9035;BME280;4552;43.422;24.592;2023-03-26T16:03:48;99253.59;;;17.16;34.84
9035;BME280;4552;43.422;24.592;2023-03-26T16:06:40;99249.91;;;17.20;34.75
9035;BME280;4552;43.422;24.592;2023-03-26T16:09:29;99253.91;;;17.10;35.02
9035;BME280;4552;43.422;24.592;2023-03-26T16:12:22;99251.19;;;17.12;35.05
9035;BME280;4552;43.422;24.592;2023-03-26T16:15:18;99245.16;;;16.93;35.08
9035;BME280;4552;43.422;24.592;2023-03-26T16:21:02;99248.19;;;16.85;35.46
9035;BME280;4552;43.422;24.592;2023-03-26T16:23:34;99240.22;;;16.68;35.39
9035;BME280;4552;43.422;24.592;2023-03-26T16:26:14;99253.94;;;16.76;35.53
9035;BME280;4552;43.422;24.592;2023-03-26T16:29:16;99250.09;;;16.65;35.77
9035;BME280;4552;43.422;24.592;2023-03-26T16:32:03;99268.63;;;16.46;35.72
9035;BME280;4552;43.422;24.592;2023-03-26T16:34:39;99265.97;;;16.46;36.36
9035;BME280;4552;43.422;24.592;2023-03-26T16:37:35;99264.97;;;16.30;36.55
9035;BME280;4552;43.422;24.592;2023-03-26T16:40:25;99265.06;;;16.29;36.82
9035;BME280;4552;43.422;24.592;2023-03-26T16:42:54;99268.63;;;16.09;37.47
9035;BME280;4552;43.422;24.592;2023-03-26T16:45:33;99253.84;;;16.05;37.81
9035;BME280;4552;43.422;24.592;2023-03-26T16:48:09;99253.84;;;16.05;38.08
9035;BME280;4552;43.422;24.592;2023-03-26T16:50:49;99252.00;;;15.89;38.68
9035;BME280;4552;43.422;24.592;2023-03-26T16:53:30;99245.13;;;15.66;38.45
9035;BME280;4552;43.422;24.592;2023-03-26T16:56:10;99252.75;;;15.72;39.01
9035;BME280;4552;43.422;24.592;2023-03-26T16:58:49;99246.16;;;15.62;39.14
9035;BME280;4552;43.422;24.592;2023-03-26T17:01:26;99238.53;;;15.36;39.25
9035;BME280;4552;43.422;24.592;2023-03-26T17:03:59;99253.00;;;15.47;39.16
9035;BME280;4552;43.422;24.592;2023-03-26T17:09:34;99238.09;;;15.26;39.64
9035;BME280;4552;43.422;24.592;2023-03-26T17:12:11;99256.56;;;15.26;39.74
9035;BME280;4552;43.422;24.592;2023-03-26T17:14:49;99261.22;;;15.20;39.63
9035;BME280;4552;43.422;24.592;2023-03-26T17:17:37;99244.41;;;15.22;39.52
9035;BME280;4552;43.422;24.592;2023-03-26T17:20:18;99256.97;;;15.36;39.27
9035;BME280;4552;43.422;24.592;2023-03-26T17:22:56;99266.50;;;15.20;39.46
9035;BME280;4552;43.422;24.592;2023-03-26T17:25:33;99271.50;;;15.26;40.35
9035;BME280;4552;43.422;24.592;2023-03-26T17:28:17;99259.38;;;15.02;40.20
9035;BME280;4552;43.422;24.592;2023-03-26T17:30:59;99281.81;;;14.90;41.54
9035;BME280;4552;43.422;24.592;2023-03-26T17:33:30;99283.25;;;14.77;42.34
9035;BME280;4552;43.422;24.592;2023-03-26T17:36:30;99284.50;;;14.47;44.24
9035;BME280;4552;43.422;24.592;2023-03-26T17:42:24;99281.63;;;14.09;44.92
9035;BME280;4552;43.422;24.592;2023-03-26T17:44:52;99270.75;;;13.71;45.47
9035;BME280;4552;43.422;24.592;2023-03-26T17:47:32;99278.13;;;13.85;45.70
9035;BME280;4552;43.422;24.592;2023-03-26T18:40:33;99250.47;;;13.03;47.39
9035;BME280;4552;43.422;24.592;2023-03-26T18:43:13;99245.66;;;12.89;47.89
9035;BME280;4552;43.422;24.592;2023-03-26T18:45:41;99238.66;;;12.90;46.87
9035;BME280;4552;43.422;24.592;2023-03-26T18:48:10;99242.13;;;12.90;48.52
9035;BME280;4552;43.422;24.592;2023-03-26T18:50:43;99237.78;;;12.89;48.06
9035;BME280;4552;43.422;24.592;2023-03-26T18:53:15;99235.69;;;12.74;49.44
9035;BME280;4552;43.422;24.592;2023-03-26T18:55:44;99228.47;;;12.79;49.22
9035;BME280;4552;43.422;24.592;2023-03-26T18:58:22;99231.25;;;12.75;48.63
9035;BME280;4552;43.422;24.592;2023-03-26T19:00:51;99233.94;;;12.73;48.52
9035;BME280;4552;43.422;24.592;2023-03-26T19:03:21;99214.38;;;12.57;49.13
9035;BME280;4552;43.422;24.592;2023-03-26T19:05:50;99220.38;;;12.61;48.69
9035;BME280;4552;43.422;24.592;2023-03-26T19:08:17;99220.44;;;12.59;48.89
9035;BME280;4552;43.422;24.592;2023-03-26T19:10:47;99221.06;;;12.66;48.99
9035;BME280;4552;43.422;24.592;2023-03-26T19:13:15;99223.59;;;12.43;50.13
9035;BME280;4552;43.422;24.592;2023-03-26T19:15:43;99216.69;;;12.40;50.35
9035;BME280;4552;43.422;24.592;2023-03-26T19:18:16;99221.31;;;12.32;50.27
9035;BME280;4552;43.422;24.592;2023-03-26T19:20:46;99200.81;;;12.17;50.40
9035;BME280;4552;43.422;24.592;2023-03-26T19:23:16;99211.13;;;12.23;50.90
9035;BME280;4552;43.422;24.592;2023-03-26T19:25:47;99217.44;;;12.17;51.42
9035;BME280;4552;43.422;24.592;2023-03-26T19:28:18;99210.56;;;12.13;50.74
9035;BME280;4552;43.422;24.592;2023-03-26T19:30:46;99206.06;;;12.17;51.12
9035;BME280;4552;43.422;24.592;2023-03-26T19:33:15;99215.06;;;12.10;50.55
9035;BME280;4552;43.422;24.592;2023-03-26T23:49:36;98859.78;;;10.67;57.49
9035;BME280;4552;43.422;24.592;2023-03-26T23:52:03;98858.06;;;10.66;57.07
9035;BME280;4552;43.422;24.592;2023-03-26T23:54:30;98863.78;;;10.78;56.92
9035;BME280;4552;43.422;24.592;2023-03-26T23:57:01;98860.19;;;10.81;56.60
9035;BME280;4552;43.422;24.592;2023-03-26T23:59:28;98857.81;;;10.73;56.79
